Time;durP1;ratioP1;P1;durP2;ratioP2;P2;SDS_P1;SDS_P2;PMS_P1;PMS_P2;Temp;Humidity;BMP_temperature;BMP_pressure;BME280_temperature;BME280_humidity;BME280_pressure;Samples;Min_cycle;Max_cycle;Signal;HPM_P1;HPM_P2
2023/12/02 00:02:09;;;;;;;29.75;14.27;;;0.10;99.90;;;;;;6211513;23;20071;-66
2023/12/02 00:04:35;;;;;;;28.17;13.65;;;0.10;99.90;;;;;;6211154;23;20028;-66
2023/12/02 00:07:01;;;;;;;32.80;14.23;;;0.20;99.90;;;;;;6184246;23;20354;-66
2023/12/02 00:09:26;;;;;;;31.25;14.95;;;0.20;99.90;;;;;;6211301;23;20016;-66
2023/12/02 00:11:52;;;;;;;31.52;15.25;;;0.30;99.90;;;;;;6211125;23;20420;-66
2023/12/02 00:14:18;;;;;;;32.05;13.93;;;0.20;99.90;;;;;;6211216;23;20017;-66
2023/12/02 00:16:44;;;;;;;27.35;13.82;;;0.10;99.90;;;;;;6210824;23;20349;-65
2023/12/02 00:19:09;;;;;;;25.55;13.50;;;0.10;99.90;;;;;;6210919;23;20028;-66
2023/12/02 00:21:35;;;;;;;31.73;14.93;;;0.20;99.90;;;;;;6183730;23;20036;-67
2023/12/02 00:24:02;;;;;;;29.65;14.30;;;0.20;99.90;;;;;;6210890;23;20036;-66
2023/12/02 00:26:27;;;;;;;28.77;14.07;;;0.30;99.90;;;;;;6209963;23;20019;-68
2023/12/02 00:28:53;;;;;;;28.75;14.38;;;0.30;99.90;;;;;;6183202;23;20095;-66
2023/12/02 00:31:19;;;;;;;32.58;15.60;;;0.30;99.90;;;;;;6210768;23;20016;-65
2023/12/02 00:33:45;;;;;;;27.80;15.13;;;0.20;99.90;;;;;;6210552;23;20720;-66
2023/12/02 00:36:11;;;;;;;30.67;14.10;;;0.30;99.90;;;;;;6183736;23;20024;-65
2023/12/02 00:38:36;;;;;;;33.47;15.45;;;0.30;99.90;;;;;;6210892;23;20020;-66
2023/12/02 00:41:02;;;;;;;32.88;16.65;;;0.30;99.90;;;;;;6210489;23;20405;-66
2023/12/02 00:43:28;;;;;;;31.77;15.93;;;0.30;99.90;;;;;;6210678;23;20027;-66
2023/12/02 00:45:53;;;;;;;32.33;15.45;;;0.30;99.90;;;;;;6206798;23;20024;-65
2023/12/02 00:48:19;;;;;;;29.80;14.52;;;0.30;99.90;;;;;;6180530;23;20021;-66
2023/12/02 00:50:45;;;;;;;32.25;15.95;;;0.30;99.90;;;;;;6180548;23;20025;-66
2023/12/02 00:53:10;;;;;;;32.75;15.02;;;0.30;99.90;;;;;;6153912;23;20403;-66
2023/12/02 00:55:36;;;;;;;29.90;14.70;;;0.30;99.90;;;;;;6180150;23;20024;-66
2023/12/02 00:58:02;;;;;;;30.38;15.43;;;0.30;99.90;;;;;;6180784;23;20346;-66
2023/12/02 01:00:28;;;;;;;31.92;15.75;;;0.20;99.90;;;;;;6180783;23;20025;-66
2023/12/02 01:02:53;;;;;;;30.15;15.43;;;0.30;99.90;;;;;;6180695;23;20335;-66
2023/12/02 01:05:19;;;;;;;33.47;15.70;;;0.30;99.90;;;;;;6153903;23;20330;-66
2023/12/02 01:07:45;;;;;;;34.80;15.35;;;0.30;99.90;;;;;;6180519;23;20096;-66
2023/12/02 01:10:11;;;;;;;29.10;15.80;;;0.30;99.90;;;;;;6180139;23;20039;-66
2023/12/02 01:12:39;;;;;;;31.55;15.98;;;0.30;99.90;;;;;;6180435;23;20405;-66
2023/12/02 01:15:05;;;;;;;32.08;15.13;;;0.30;99.90;;;;;;6180452;23;20028;-66
2023/12/02 01:17:30;;;;;;;34.20;17.02;;;0.20;99.90;;;;;;6182471;23;20130;-66
2023/12/02 01:19:56;;;;;;;34.38;15.52;;;0.20;99.90;;;;;;6182153;23;20017;-66
2023/12/02 01:22:22;;;;;;;35.05;16.02;;;0.20;99.90;;;;;;6182297;23;20017;-66
2023/12/02 01:24:47;;;;;;;31.63;14.68;;;0.20;99.90;;;;;;6181825;23;20354;-66
2023/12/02 01:27:13;;;;;;;31.33;14.95;;;0.20;99.90;;;;;;6182394;23;20072;-66
2023/12/02 01:29:39;;;;;;;25.60;14.32;;;0.20;99.90;;;;;;6155616;23;20028;-66
2023/12/02 01:32:05;;;;;;;29.10;14.73;;;0.20;99.90;;;;;;6181998;23;20087;-66
2023/12/02 01:34:31;;;;;;;33.45;15.15;;;0.20;99.90;;;;;;6182040;23;20592;-66
2023/12/02 01:36:56;;;;;;;31.42;15.60;;;0.10;99.90;;;;;;6130557;23;20017;-66
2023/12/02 01:39:22;;;;;;;28.83;15.00;;;0.10;99.90;;;;;;6155855;23;20025;-66
2023/12/02 01:41:48;;;;;;;28.90;14.82;;;0.10;99.90;;;;;;6182225;23;20053;-66
2023/12/02 01:44:14;;;;;;;35.85;16.08;;;0.10;99.90;;;;;;6155484;23;20034;-66
2023/12/02 01:46:39;;;;;;;27.92;12.80;;;0.10;99.90;;;;;;6195070;23;20036;-66
2023/12/02 01:49:07;;;;;;;26.08;14.25;;;0.10;99.90;;;;;;6212115;23;20482;-66
2023/12/02 01:51:34;;;;;;;31.48;14.80;;;0.10;99.90;;;;;;6160208;23;20036;-66
2023/12/02 01:54:00;;;;;;;31.02;15.07;;;0.10;99.90;;;;;;6212162;23;20059;-66
2023/12/02 01:56:26;;;;;;;30.88;14.38;;;0.00;99.90;;;;;;6212180;23;20016;-66
2023/12/02 01:58:51;;;;;;;29.55;14.05;;;0.00;99.90;;;;;;6212085;23;20017;-66
2023/12/02 02:01:18;;;;;;;29.92;14.43;;;0.00;99.90;;;;;;6212145;23;20013;-66
2023/12/02 02:03:43;;;;;;;32.25;14.40;;;0.00;99.90;;;;;;6211677;23;20096;-66
2023/12/02 02:06:10;;;;;;;28.17;14.45;;;0.00;99.90;;;;;;6211571;23;20063;-66
2023/12/02 02:08:36;;;;;;;33.83;15.60;;;0.00;99.90;;;;;;6185625;23;20024;-66
2023/12/02 02:11:02;;;;;;;32.33;14.25;;;0.00;99.90;;;;;;6185148;23;20024;-66
2023/12/02 02:13:28;;;;;;;33.58;15.65;;;0.00;99.90;;;;;;6211725;23;20016;-66
2023/12/02 02:15:56;;;;;;;31.25;14.43;;;0.00;99.90;;;;;;6211790;23;20029;-65
2023/12/02 02:18:22;;;;;;;33.50;14.77;;;0.00;99.90;;;;;;6211659;23;20016;-66
2023/12/02 02:20:53;;;;;;;30.08;14.27;;;0.00;99.90;;;;;;6184592;23;20151;-66
2023/12/02 02:23:20;;;;;;;28.67;15.00;;;0.00;99.90;;;;;;6211596;23;20017;-66
2023/12/02 02:25:49;;;;;;;28.10;14.52;;;0.00;99.90;;;;;;6185037;23;20060;-66
2023/12/02 02:28:22;;;;;;;34.25;15.95;;;0.00;99.90;;;;;;6211604;23;20087;-66
2023/12/02 02:30:49;;;;;;;31.67;14.38;;;0.00;99.90;;;;;;6211761;23;20023;-66
2023/12/02 02:33:15;;;;;;;32.55;15.73;;;0.10;99.90;;;;;;6211258;23;20025;-66
2023/12/02 02:35:42;;;;;;;32.13;15.57;;;0.00;99.90;;;;;;6184836;23;20082;-66
2023/12/02 02:38:08;;;;;;;38.40;15.63;;;0.10;99.90;;;;;;6185160;23;20031;-66
2023/12/02 02:40:34;;;;;;;34.40;14.73;;;0.00;99.90;;;;;;6212159;23;20044;-66
2023/12/02 02:43:00;;;;;;;34.20;15.07;;;0.00;99.90;;;;;;6212343;23;20024;-66
2023/12/02 02:45:26;;;;;;;30.27;15.85;;;0.00;99.90;;;;;;6212238;23;20016;-66
2023/12/02 02:47:52;;;;;;;31.70;14.57;;;0.00;99.90;;;;;;6179845;23;20021;-65
2023/12/02 02:50:18;;;;;;;33.42;16.27;;;0.00;99.90;;;;;;6181461;23;20389;-65
2023/12/02 02:52:44;;;;;;;31.65;16.52;;;0.00;99.90;;;;;;6181649;23;20020;-66
2023/12/02 02:55:10;;;;;;;34.00;16.33;;;0.00;99.90;;;;;;6181291;23;20028;-66
2023/12/02 02:57:36;;;;;;;30.25;15.60;;;0.00;99.90;;;;;;6179523;23;20025;-66
2023/12/02 03:00:05;;;;;;;32.75;15.82;;;0.10;99.90;;;;;;6181380;23;20315;-66
2023/12/02 03:02:30;;;;;;;31.83;15.60;;;0.10;99.90;;;;;;6181343;23;20059;-66
2023/12/02 03:04:58;;;;;;;33.60;16.60;;;0.10;99.90;;;;;;6180886;23;20013;-66
2023/12/02 03:07:24;;;;;;;33.22;15.95;;;0.20;99.90;;;;;;6179773;23;20091;-66
2023/12/02 03:09:49;;;;;;;33.22;15.07;;;0.20;99.90;;;;;;6181429;23;20349;-66
2023/12/02 03:12:15;;;;;;;32.95;15.82;;;0.10;99.90;;;;;;6181433;23;20064;-66
2023/12/02 03:14:41;;;;;;;29.17;15.38;;;0.10;99.90;;;;;;6181573;23;20151;-66
2023/12/02 03:17:06;;;;;;;30.40;14.80;;;0.10;99.90;;;;;;6182153;23;20127;-66
2023/12/02 03:19:32;;;;;;;31.85;15.88;;;0.10;99.90;;;;;;6181145;23;20036;-66
2023/12/02 03:21:58;;;;;;;30.20;15.80;;;0.20;99.90;;;;;;6181460;23;20446;-66
2023/12/02 03:24:24;;;;;;;33.83;15.85;;;0.20;99.90;;;;;;6181497;23;20021;-66
2023/12/02 03:26:51;;;;;;;31.92;16.00;;;0.20;99.90;;;;;;6181419;23;20021;-66
2023/12/02 03:29:16;;;;;;;29.95;14.95;;;0.20;99.90;;;;;;6181071;23;20079;-66
2023/12/02 03:31:42;;;;;;;30.85;15.40;;;0.20;99.90;;;;;;6180736;23;20009;-66
2023/12/02 03:34:08;;;;;;;32.88;15.38;;;0.20;99.90;;;;;;6180844;23;20024;-66
2023/12/02 03:36:35;;;;;;;34.75;15.82;;;0.20;99.90;;;;;;6179358;23;20074;-66
2023/12/02 03:39:01;;;;;;;35.88;16.65;;;0.20;99.90;;;;;;6181009;23;20020;-66
2023/12/02 03:41:26;;;;;;;33.85;15.45;;;0.20;99.90;;;;;;6181723;23;20013;-66
2023/12/02 03:43:52;;;;;;;33.95;15.93;;;0.20;99.90;;;;;;6181455;23;20044;-66
2023/12/02 03:46:18;;;;;;;30.30;15.35;;;0.30;99.90;;;;;;6189665;23;20024;-66
2023/12/02 03:48:43;;;;;;;32.42;15.73;;;0.30;99.90;;;;;;6210984;23;20016;-66
2023/12/02 03:51:09;;;;;;;30.73;16.38;;;0.30;99.90;;;;;;6211173;23;20036;-66
2023/12/02 03:53:36;;;;;;;30.58;15.50;;;0.30;99.90;;;;;;6210874;23;20024;-66
2023/12/02 03:56:02;;;;;;;32.67;16.65;;;0.30;99.90;;;;;;6211128;23;20027;-66
2023/12/02 03:58:28;;;;;;;30.63;14.48;;;0.30;99.90;;;;;;6183771;23;20319;-66
2023/12/02 04:00:56;;;;;;;33.90;15.25;;;0.30;99.90;;;;;;6210580;23;20111;-66
2023/12/02 04:03:22;;;;;;;30.92;15.20;;;0.30;99.90;;;;;;6210418;23;20076;-66
2023/12/02 04:05:52;;;;;;;34.45;15.88;;;0.30;99.90;;;;;;6211664;23;20059;-66
2023/12/02 04:08:18;;;;;;;32.45;16.42;;;0.30;99.90;;;;;;6211402;23;20021;-66
2023/12/02 04:10:43;;;;;;;31.58;16.25;;;0.20;99.90;;;;;;6210881;23;20620;-66
2023/12/02 04:13:10;;;;;;;28.67;14.75;;;0.20;99.90;;;;;;6211222;23;20028;-66
2023/12/02 04:15:35;;;;;;;34.58;16.70;;;0.10;99.90;;;;;;6210796;23;20032;-66
2023/12/02 04:18:02;;;;;;;35.45;17.42;;;0.10;99.90;;;;;;6183703;23;20021;-66
2023/12/02 04:20:28;;;;;;;38.38;18.50;;;0.20;99.90;;;;;;6210657;23;20027;-66
2023/12/02 04:22:53;;;;;;;36.50;17.67;;;0.20;99.90;;;;;;6210857;23;20032;-65
2023/12/02 04:25:19;;;;;;;35.08;16.35;;;0.30;99.90;;;;;;6210926;23;20028;-66
2023/12/02 04:27:46;;;;;;;36.25;17.70;;;0.30;99.90;;;;;;6211188;23;20107;-66
2023/12/02 04:30:14;;;;;;;31.15;15.57;;;0.30;99.90;;;;;;6183521;23;20036;-65
2023/12/02 04:32:40;;;;;;;31.75;16.33;;;0.30;99.90;;;;;;6209891;23;20071;-66
2023/12/02 04:35:07;;;;;;;35.38;16.50;;;0.30;99.90;;;;;;6210331;23;20091;-66
2023/12/02 04:37:32;;;;;;;34.50;16.65;;;0.30;99.90;;;;;;6210863;23;20013;-66
2023/12/02 04:39:58;;;;;;;30.85;15.90;;;0.30;99.90;;;;;;6210323;23;20047;-66
2023/12/02 04:42:24;;;;;;;35.05;15.82;;;0.30;99.90;;;;;;6210418;23;20406;-66
2023/12/02 04:44:50;;;;;;;32.63;15.30;;;0.30;99.90;;;;;;6210440;23;20020;-66
2023/12/02 04:47:16;;;;;;;33.83;15.73;;;0.30;99.90;;;;;;6209956;23;20060;-66
2023/12/02 04:49:41;;;;;;;27.00;15.13;;;0.30;99.90;;;;;;6210606;23;20027;-66
2023/12/02 04:52:08;;;;;;;34.33;15.15;;;0.40;99.90;;;;;;6212567;23;20020;-66
2023/12/02 04:54:36;;;;;;;34.22;15.40;;;0.40;99.90;;;;;;6212301;23;20009;-66
2023/12/02 04:57:02;;;;;;;33.05;15.90;;;0.40;99.90;;;;;;6212650;23;20162;-66
2023/12/02 04:59:28;;;;;;;31.70;16.63;;;0.30;99.90;;;;;;6185892;23;20457;-66
2023/12/02 05:01:54;;;;;;;30.83;14.90;;;0.30;99.90;;;;;;6211904;23;20372;-66
2023/12/02 05:04:20;;;;;;;32.83;15.43;;;0.30;99.90;;;;;;6212541;23;20051;-66
2023/12/02 05:06:46;;;;;;;33.85;16.77;;;0.30;99.90;;;;;;6212535;23;20048;-66
2023/12/02 05:09:12;;;;;;;32.58;16.00;;;0.30;99.90;;;;;;6211940;23;20056;-66
2023/12/02 05:11:37;;;;;;;34.20;16.88;;;0.30;99.90;;;;;;6212168;23;20083;-66
2023/12/02 05:14:03;;;;;;;35.17;16.40;;;0.30;99.90;;;;;;6212560;23;20028;-66
2023/12/02 05:16:29;;;;;;;35.25;15.82;;;0.40;99.90;;;;;;6212023;23;20017;-66
2023/12/02 05:18:55;;;;;;;34.40;16.45;;;0.40;99.90;;;;;;6212475;23;20024;-67
2023/12/02 05:21:20;;;;;;;34.30;16.27;;;0.50;99.90;;;;;;6212350;23;20020;-66
2023/12/02 05:23:46;;;;;;;37.92;17.10;;;0.40;99.90;;;;;;6212272;23;20039;-66
2023/12/02 05:26:12;;;;;;;32.10;15.05;;;0.40;99.90;;;;;;6212452;23;20081;-66
2023/12/02 05:28:38;;;;;;;31.13;15.55;;;0.40;99.90;;;;;;6212025;23;20016;-66
2023/12/02 05:31:04;;;;;;;35.83;17.15;;;0.40;99.90;;;;;;6184903;23;20104;-66
2023/12/02 05:33:30;;;;;;;31.45;15.73;;;0.40;99.90;;;;;;6212141;23;20024;-66
2023/12/02 05:35:56;;;;;;;34.20;16.38;;;0.50;99.90;;;;;;6212165;23;20017;-65
2023/12/02 05:38:22;;;;;;;34.95;16.05;;;0.50;99.90;;;;;;6185340;23;20013;-66
2023/12/02 05:40:47;;;;;;;34.60;16.73;;;0.50;99.90;;;;;;6185185;23;20028;-66
2023/12/02 05:43:13;;;;;;;33.03;16.73;;;0.40;99.90;;;;;;6212200;23;20134;-66
2023/12/02 05:45:39;;;;;;;32.63;16.35;;;0.50;99.90;;;;;;6184818;23;20072;-66
2023/12/02 05:48:05;;;;;;;39.83;16.23;;;0.50;99.90;;;;;;6212207;23;20024;-66
2023/12/02 05:50:31;;;;;;;31.75;16.60;;;0.50;99.90;;;;;;6212132;23;20367;-66
2023/12/02 05:52:57;;;;;;;38.50;17.08;;;0.50;99.90;;;;;;6185359;23;20044;-66
2023/12/02 05:55:23;;;;;;;33.55;16.67;;;0.50;99.90;;;;;;6185017;23;20040;-66
2023/12/02 05:57:48;;;;;;;34.30;15.77;;;0.50;99.90;;;;;;6212055;23;20091;-66
2023/12/02 06:00:18;;;;;;;35.05;16.92;;;0.50;99.90;;;;;;6211839;23;20020;-66
2023/12/02 06:02:44;;;;;;;32.30;15.60;;;0.40;99.90;;;;;;6211756;23;20035;-66
2023/12/02 06:05:09;;;;;;;35.15;16.15;;;0.50;99.90;;;;;;6212017;23;20044;-66
2023/12/02 06:07:35;;;;;;;36.10;16.73;;;0.50;99.90;;;;;;6185734;23;20110;-66
2023/12/02 06:10:01;;;;;;;34.10;16.38;;;0.50;99.90;;;;;;6212331;23;20017;-66
2023/12/02 06:12:27;;;;;;;35.55;16.73;;;0.50;99.90;;;;;;6212054;23;20385;-66
2023/12/02 06:14:52;;;;;;;34.47;16.17;;;0.60;99.90;;;;;;6211948;23;20337;-66
2023/12/02 06:17:18;;;;;;;36.08;17.02;;;0.60;99.90;;;;;;6211495;23;20012;-66
2023/12/02 06:19:44;;;;;;;32.60;15.90;;;0.60;99.90;;;;;;6211963;23;20095;-66
2023/12/02 06:22:09;;;;;;;34.45;16.38;;;0.60;99.90;;;;;;6184900;23;20032;-66
2023/12/02 06:24:35;;;;;;;34.40;16.10;;;0.50;99.90;;;;;;6211977;23;20027;-66
2023/12/02 06:27:01;;;;;;;36.58;17.00;;;0.60;99.90;;;;;;6211732;23;20479;-66
2023/12/02 06:29:26;;;;;;;34.30;16.38;;;0.60;99.90;;;;;;6211388;23;20021;-66
2023/12/02 06:31:53;;;;;;;38.33;17.95;;;0.60;99.90;;;;;;6211352;23;20024;-67
2023/12/02 06:34:19;;;;;;;31.67;16.02;;;0.50;99.90;;;;;;6211933;23;20337;-66
2023/12/02 06:36:45;;;;;;;33.47;16.60;;;0.60;99.90;;;;;;6211969;23;20021;-66
2023/12/02 06:39:14;;;;;;;31.90;15.15;;;0.60;99.90;;;;;;6212263;23;20020;-66
2023/12/02 06:41:43;;;;;;;35.38;16.15;;;0.60;99.90;;;;;;6211761;23;20120;-66
2023/12/02 06:44:09;;;;;;;36.75;16.02;;;0.60;99.90;;;;;;6211787;23;20032;-66
2023/12/02 06:46:35;;;;;;;34.72;15.88;;;0.60;99.90;;;;;;6211410;23;20031;-66
2023/12/02 06:49:01;;;;;;;34.92;15.63;;;0.60;99.90;;;;;;6211523;23;20016;-65
2023/12/02 06:51:29;;;;;;;33.40;16.00;;;0.50;99.90;;;;;;6211692;23;20476;-66
2023/12/02 06:53:58;;;;;;;38.00;17.75;;;0.60;99.90;;;;;;6211688;23;20024;-66
2023/12/02 06:56:25;;;;;;;32.80;16.05;;;0.60;99.90;;;;;;6211156;23;20099;-66
2023/12/02 06:58:52;;;;;;;35.22;16.13;;;0.60;99.90;;;;;;6211600;23;20039;-66
2023/12/02 07:01:31;;;;;;;36.03;15.93;;;0.60;99.90;;;;;;6211627;23;20021;-66
2023/12/02 07:03:59;;;;;;;34.75;15.63;;;0.60;99.90;;;;;;6211548;23;20021;-66
2023/12/02 07:06:26;;;;;;;35.67;16.58;;;0.60;99.90;;;;;;6211855;23;20025;-66
2023/12/02 07:08:53;;;;;;;32.92;16.02;;;0.60;99.90;;;;;;6184772;23;20496;-66
2023/12/02 07:11:19;;;;;;;33.47;16.30;;;0.60;99.90;;;;;;6211436;23;20464;-67
2023/12/02 07:13:45;;;;;;;35.65;16.42;;;0.70;99.90;;;;;;6211688;23;20055;-66
2023/12/02 07:16:11;;;;;;;34.85;15.93;;;0.60;99.90;;;;;;6184714;23;20048;-65
2023/12/02 07:18:37;;;;;;;34.42;16.92;;;0.60;99.90;;;;;;6211432;23;20341;-66
2023/12/02 07:21:03;;;;;;;36.47;17.38;;;0.60;99.90;;;;;;6211147;23;20012;-66
2023/12/02 07:23:29;;;;;;;34.47;17.02;;;0.60;99.90;;;;;;6210219;23;20028;-66
2023/12/02 07:25:55;;;;;;;34.85;16.15;;;0.60;99.90;;;;;;6210839;23;20104;-66
2023/12/02 07:28:21;;;;;;;29.00;15.32;;;0.60;99.90;;;;;;6184045;23;20368;-66
2023/12/02 07:30:50;;;;;;;34.17;16.55;;;0.50;99.90;;;;;;6210658;23;20104;-66
2023/12/02 07:33:18;;;;;;;32.78;16.02;;;0.40;99.90;;;;;;6210798;23;20326;-66
2023/12/02 07:35:44;;;;;;;35.50;16.15;;;0.40;99.90;;;;;;6210704;23;20093;-65
2023/12/02 07:38:10;;;;;;;33.10;15.65;;;0.40;99.90;;;;;;6210884;23;20104;-66
2023/12/02 07:40:36;;;;;;;35.65;17.65;;;0.50;99.90;;;;;;6183752;23;20453;-66
2023/12/02 07:43:05;;;;;;;36.67;17.42;;;0.40;99.90;;;;;;6211181;23;20028;-66
2023/12/02 07:45:31;;;;;;;35.83;16.73;;;0.50;99.90;;;;;;6210734;23;20028;-66
2023/12/02 07:47:57;;;;;;;39.63;16.60;;;0.50;99.90;;;;;;6183814;23;20780;-66
2023/12/02 07:50:23;;;;;;;35.65;17.00;;;0.50;99.90;;;;;;6184057;23;20404;-66
2023/12/02 07:52:49;;;;;;;33.83;15.80;;;0.50;99.90;;;;;;6211037;23;20012;-66
2023/12/02 07:55:15;;;;;;;32.60;16.33;;;0.50;99.90;;;;;;6210688;23;20024;-66
2023/12/02 07:57:40;;;;;;;29.40;14.60;;;0.60;99.90;;;;;;6211206;23;20079;-66
2023/12/02 08:00:07;;;;;;;36.03;16.40;;;0.60;99.90;;;;;;6211100;23;20024;-66
2023/12/02 08:02:34;;;;;;;33.75;16.55;;;0.50;99.90;;;;;;6183987;23;20028;-66
2023/12/02 08:04:59;;;;;;;34.35;15.85;;;0.60;99.90;;;;;;6211019;23;20024;-66
2023/12/02 08:07:25;;;;;;;30.55;15.68;;;0.60;99.90;;;;;;6184086;23;20032;-66
2023/12/02 08:09:51;;;;;;;34.65;15.57;;;0.60;99.90;;;;;;6210277;23;20326;-66
2023/12/02 08:12:17;;;;;;;32.78;15.30;;;0.60;99.90;;;;;;6183820;23;20012;-67
2023/12/02 08:14:42;;;;;;;35.33;16.45;;;0.60;99.90;;;;;;6183668;23;20017;-66
2023/12/02 08:17:08;;;;;;;40.42;17.02;;;0.60;99.90;;;;;;6183909;23;20409;-66
2023/12/02 08:19:35;;;;;;;37.50;16.95;;;0.50;99.90;;;;;;6210954;23;20024;-66
2023/12/02 08:22:01;;;;;;;31.13;15.38;;;0.60;99.90;;;;;;6210493;23;20476;-67
2023/12/02 08:24:26;;;;;;;32.30;15.85;;;0.70;99.90;;;;;;6183188;23;20404;-66
2023/12/02 08:26:52;;;;;;;35.10;15.23;;;0.60;99.90;;;;;;6210552;23;20012;-67
2023/12/02 08:29:18;;;;;;;36.10;16.00;;;0.60;99.90;;;;;;6183911;23;20319;-67
2023/12/02 08:31:43;;;;;;;35.72;17.70;;;0.70;99.90;;;;;;6210448;23;20025;-66
2023/12/02 08:34:09;;;;;;;32.95;15.55;;;0.70;99.90;;;;;;6210648;23;20024;-66
2023/12/02 08:36:35;;;;;;;31.88;15.25;;;0.70;99.90;;;;;;6210792;23;20021;-66
2023/12/02 08:39:04;;;;;;;39.58;17.42;;;0.70;99.90;;;;;;6182933;23;20024;-66
2023/12/02 08:41:30;;;;;;;31.60;15.48;;;0.70;99.90;;;;;;6210621;23;20024;-66
2023/12/02 08:43:56;;;;;;;36.15;17.25;;;0.80;99.90;;;;;;6210674;23;20427;-66
2023/12/02 08:46:22;;;;;;;33.30;15.45;;;0.80;99.90;;;;;;6209924;23;20035;-66
2023/12/02 08:48:47;;;;;;;33.33;15.48;;;0.80;99.90;;;;;;6183565;23;20526;-67
2023/12/02 08:51:13;;;;;;;39.28;17.42;;;0.80;99.90;;;;;;6209662;23;20025;-66
2023/12/02 08:53:39;;;;;;;33.80;15.35;;;0.80;99.90;;;;;;6183143;23;20433;-66
2023/12/02 08:56:05;;;;;;;36.50;16.38;;;0.80;99.90;;;;;;6209817;23;20020;-66
2023/12/02 08:58:31;;;;;;;35.20;16.65;;;0.80;99.90;;;;;;6210354;23;20019;-66
2023/12/02 09:00:56;;;;;;;35.83;16.80;;;0.80;99.90;;;;;;6210251;23;20056;-66
2023/12/02 09:03:25;;;;;;;41.22;17.52;;;0.80;99.90;;;;;;6209209;23;20024;-66
2023/12/02 09:05:55;;;;;;;34.33;17.20;;;0.90;99.90;;;;;;6210428;23;20024;-64
2023/12/02 09:08:21;;;;;;;36.25;16.17;;;0.90;99.90;;;;;;6210431;23;20031;-65
2023/12/02 09:10:47;;;;;;;33.28;16.13;;;0.80;99.90;;;;;;6210658;23;20342;-64
2023/12/02 09:13:32;;;;;;;35.58;16.13;;;0.80;99.90;;;;;;6209940;23;20020;-64
2023/12/02 09:16:00;;;;;;;38.25;16.85;;;0.80;99.90;;;;;;6210016;23;20437;-64
2023/12/02 09:18:29;;;;;;;32.33;15.35;;;0.90;99.90;;;;;;6183404;23;20020;-64
2023/12/02 09:20:55;;;;;;;41.83;16.52;;;0.90;99.90;;;;;;6209710;23;20099;-65
2023/12/02 09:23:21;;;;;;;33.33;16.48;;;0.90;99.90;;;;;;6210456;23;20052;-65
2023/12/02 09:25:48;;;;;;;41.20;18.00;;;0.90;99.90;;;;;;6210024;23;20016;-66
2023/12/02 09:28:16;;;;;;;31.15;15.77;;;1.00;99.90;;;;;;6210678;23;20309;-66
2023/12/02 09:31:03;;;;;;;37.67;15.95;;;0.90;99.90;;;;;;6210011;23;20021;-66
2023/12/02 09:33:29;;;;;;;31.58;15.27;;;0.90;99.90;;;;;;6210378;23;20016;-66
2023/12/02 09:35:58;;;;;;;35.30;16.52;;;0.90;99.90;;;;;;6209990;23;20028;-65
2023/12/02 09:38:24;;;;;;;34.50;16.55;;;0.90;99.90;;;;;;6212013;23;20024;-65
2023/12/02 09:40:55;;;;;;;36.90;17.45;;;0.90;99.90;;;;;;6210975;23;20013;-65
2023/12/02 09:43:41;;;;;;;35.00;15.93;;;0.90;99.90;;;;;;6211760;23;20453;-65
2023/12/02 09:46:14;;;;;;;34.78;16.13;;;0.80;99.90;;;;;;6211438;23;20445;-66
2023/12/02 09:49:18;;;;;;;38.92;17.02;;;1.00;99.90;;;;;;6185231;23;20043;-67
2023/12/02 09:51:52;;;;;;;;;;;1.00;99.90;;;;;;6211934;23;20051;-66
2023/12/02 09:54:21;;;;;;;37.60;17.00;;;1.00;99.90;;;;;;6184854;23;20387;-66
2023/12/02 09:56:55;;;;;;;32.95;15.57;;;1.00;99.90;;;;;;6185000;23;20028;-66
2023/12/02 10:00:00;;;;;;;40.03;17.48;;;1.00;99.90;;;;;;6185495;23;20086;-66
2023/12/02 10:02:53;;;;;;;45.47;20.40;;;0.90;99.90;;;;;;6211458;23;20024;-66
2023/12/02 10:05:20;;;;;;;48.47;20.83;;;1.00;99.90;;;;;;6211948;23;20024;-66
2023/12/02 10:08:07;;;;;;;38.13;17.02;;;1.00;99.90;;;;;;6184589;23;20020;-66
2023/12/02 10:10:44;;;;;;;41.83;18.77;;;1.00;99.90;;;;;;6184669;23;20028;-66
2023/12/02 10:13:23;;;;;;;44.53;18.08;;;1.10;99.90;;;;;;6211156;23;20020;-67
2023/12/02 10:15:54;;;;;;;44.33;19.48;;;1.10;99.90;;;;;;6184394;23;20326;-66
2023/12/02 10:18:22;;;;;;;43.33;18.33;;;1.10;99.90;;;;;;6211624;23;20020;-66
2023/12/02 10:21:00;;;;;;;44.13;17.90;;;1.20;99.90;;;;;;6184594;23;20082;-66
2023/12/02 10:23:35;;;;;;;42.28;17.77;;;1.20;99.90;;;;;;6211791;23;20048;-66
2023/12/02 10:26:15;;;;;;;40.83;19.10;;;1.20;99.90;;;;;;6211817;23;20056;-66
2023/12/02 10:28:55;;;;;;;38.88;17.90;;;1.20;99.90;;;;;;6212108;23;20078;-66
2023/12/02 10:31:26;;;;;;;40.65;17.77;;;1.20;99.90;;;;;;6211813;23;20035;-65
2023/12/02 10:33:55;;;;;;;43.95;20.63;;;1.30;99.90;;;;;;6212403;23;20102;-66
2023/12/02 10:36:21;;;;;;;35.55;16.60;;;1.40;99.90;;;;;;6211929;23;20024;-67
2023/12/02 10:39:10;;;;;;;40.70;17.40;;;1.30;99.90;;;;;;6211917;23;20025;-67
2023/12/02 10:41:38;;;;;;;41.28;18.77;;;1.40;99.90;;;;;;6212140;23;20020;-66
2023/12/02 10:44:07;;;;;;;42.08;17.77;;;1.40;99.90;;;;;;6211685;23;20501;-66
2023/12/02 10:46:34;;;;;;;42.22;17.98;;;1.40;99.90;;;;;;6211809;23;20016;-66
2023/12/02 10:49:01;;;;;;;39.58;17.95;;;1.40;99.90;;;;;;6210743;23;20110;-66
2023/12/02 10:51:27;;;;;;;37.55;17.08;;;1.50;99.90;;;;;;6211395;23;20028;-67
2023/12/02 10:53:59;;;;;;;38.38;17.70;;;1.50;99.90;;;;;;6211581;23;20023;-66
2023/12/02 10:56:28;;;;;;;38.83;18.43;;;1.50;99.90;;;;;;6211642;23;20025;-66
2023/12/02 10:58:55;;;;;;;39.67;17.95;;;1.50;99.90;;;;;;6211224;23;20264;-66
2023/12/02 11:01:43;;;;;;;37.85;18.20;;;1.50;99.90;;;;;;6211158;23;20021;-66
2023/12/02 11:04:18;;;;;;;34.67;17.83;;;1.50;99.90;;;;;;6211370;23;20086;-65
2023/12/02 11:06:53;;;;;;;41.60;18.98;;;1.60;99.90;;;;;;6211409;23;20025;-65
2023/12/02 11:09:22;;;;;;;44.08;18.90;;;1.60;99.90;;;;;;6211421;23;20013;-66
2023/12/02 11:12:16;;;;;;;43.80;17.98;;;1.70;99.90;;;;;;6211211;23;20338;-66
2023/12/02 11:14:43;;;;;;;40.00;19.15;;;1.70;99.90;;;;;;6211295;23;20004;-66
2023/12/02 11:17:24;;;;;;;42.25;19.17;;;1.80;99.90;;;;;;6210786;23;20017;-67
2023/12/02 11:20:25;;;;;;;39.55;17.98;;;1.90;99.90;;;;;;6211513;23;20028;-66
2023/12/02 11:23:12;;;;;;;48.08;19.63;;;1.90;99.90;;;;;;6182830;23;20021;-66
2023/12/02 11:26:06;;;;;;;42.50;17.85;;;2.10;99.90;;;;;;6211493;23;20020;-66
2023/12/02 11:29:26;;;;;;;44.88;17.65;;;2.00;99.90;;;;;;6212114;23;20052;-66
2023/12/02 11:32:06;;;;;;;41.92;17.35;;;2.10;99.90;;;;;;6060676;23;20027;-66
2023/12/02 11:34:38;;;;;;;38.60;16.05;;;2.00;99.90;;;;;;6211991;23;20016;-66
2023/12/02 11:37:28;;;;;;;41.03;18.05;;;2.00;99.90;;;;;;6211729;23;20017;-64
2023/12/02 11:40:24;;;;;;;41.00;18.63;;;2.00;99.90;;;;;;6184901;23;20021;-64
2023/12/02 11:43:03;;;;;;;42.22;18.95;;;2.00;99.90;;;;;;6211198;23;20016;-65
2023/12/02 11:45:42;;;;;;;38.45;17.75;;;2.00;99.90;;;;;;6211628;23;20017;-65
2023/12/02 11:48:25;;;;;;;42.00;19.92;;;2.00;99.90;;;;;;6211099;23;20520;-66
2023/12/02 11:51:11;;;;;;;40.28;18.30;;;2.00;99.90;;;;;;6211892;23;20017;-66
2023/12/02 11:53:49;;;;;;;43.45;18.05;;;2.00;99.90;;;;;;6211741;23;20020;-66
2023/12/02 11:56:20;;;;;;;39.95;18.17;;;2.00;99.90;;;;;;6184674;23;20046;-66
2023/12/02 11:59:00;;;;;;;43.60;18.00;;;2.00;99.90;;;;;;6211370;23;20024;-66
2023/12/02 12:01:35;;;;;;;43.28;19.30;;;2.10;99.90;;;;;;6211187;23;20017;-66
2023/12/02 12:04:23;;;;;;;89.10;33.50;;;2.20;99.90;;;;;;6184693;23;20349;-66
2023/12/02 12:06:49;;;;;;;58.22;24.38;;;2.20;99.90;;;;;;6211806;23;20029;-65
2023/12/02 12:09:49;;;;;;;55.50;23.40;;;2.20;99.90;;;;;;6211548;23;20016;-66
2023/12/02 12:12:18;;;;;;;61.72;26.00;;;2.30;99.90;;;;;;6211439;23;20016;-66
2023/12/02 12:14:45;;;;;;;57.55;23.27;;;2.30;99.90;;;;;;6211238;23;20534;-66
2023/12/02 12:17:10;;;;;;;51.60;21.15;;;2.30;99.90;;;;;;6211241;23;20024;-66
2023/12/02 12:19:36;;;;;;;47.95;20.15;;;2.30;99.90;;;;;;6211183;23;20038;-67
2023/12/02 12:22:02;;;;;;;43.70;18.33;;;2.30;99.90;;;;;;6184441;23;20016;-66
2023/12/02 12:24:27;;;;;;;34.60;16.55;;;2.40;99.90;;;;;;6210622;23;20095;-66
2023/12/02 12:26:53;;;;;;;42.22;17.63;;;2.40;99.90;;;;;;6210691;23;20024;-67
2023/12/02 12:29:19;;;;;;;38.58;16.77;;;2.30;99.90;;;;;;6210609;23;20035;-66
2023/12/02 12:31:45;;;;;;;41.38;17.92;;;2.40;99.90;;;;;;6210329;23;20025;-67
2023/12/02 12:34:12;;;;;;;37.40;16.08;;;2.40;99.90;;;;;;6210885;23;20027;-67
2023/12/02 12:36:39;;;;;;;41.05;17.02;;;2.40;99.90;;;;;;6210872;23;20023;-67
2023/12/02 12:39:07;;;;;;;41.25;17.98;;;2.40;99.90;;;;;;6184087;23;20382;-67
2023/12/02 12:41:36;;;;;;;40.00;16.42;;;2.40;99.90;;;;;;6210394;23;20070;-66
2023/12/02 12:44:03;;;;;;;43.60;17.95;;;2.40;99.90;;;;;;6210163;23;20084;-67
2023/12/02 12:46:30;;;;;;;41.40;17.55;;;2.40;99.90;;;;;;6210537;23;20032;-67